Ride Results

Killarney (06-04-2019)
Ride distance: 80.0 km

Outcomes - Killarney (06-04-2019)
Division No. of Entries Retired / DNE Completed Withdrawn Ineligible V/O Percentage Completed
HW 15 - 14 1 - - 93.33%
MW 45 - 34 3 - 8 75.56%
LW 37 - 30 1 - 6 81.08%
JN 15 - 15 - - - 100.00%
Totals 112 - 93 5 - 14 83.04%
Results - Killarney (06-04-2019)
No. Rider Horse Place Time Leg Speeds Total
Km/Hr
H/R bpm
Heavyweight
61 Doug Dart Cameo Moon River 1 (BC) 4:14:00 19.9, 17.9 18.90 32, 42, 50 (Avg:46)
23 Greg Lyon Chingford Just Dreaming 2 4:38:00 18.7, 15.9 17.27 30, 52, 53 (Avg:52)
42 Leanne McLaughlin Ramalea Petria 3 5:30:00 15.6, 13.5 14.55 40, 42, 45 (Avg:43)
70 Mark Nimon Abbeywood Zsarina 4 6:31:00 12.8, 11.7 12.28 32, 39, 50 (Avg:44)
60 Aaron Dymock Gheerulla Asterix 5 6:35:00 11.4, 12.9 12.15 36, 45, 54 (Avg:49)
95 Luke Annetts Churinga Taboo 6 6:38:00 12.4, 11.7 12.06 36, 43, 47 (Avg:45)
86 Greg Garred Shannonwood Hotlips 7 7:11:00 12.3, 10.1 11.14 37, 44, 47 (Avg:45)
87 Jaime Mansbridge Shannonwood Rana 7 7:11:00 11.7, 10.6 11.14 38, 40, 52 (Avg:46)
81 Denise Kaye Die Kinder Mercedes 9 7:18:00 11.7, 10.2 10.96 40, 50, 46 (Avg:48)
57 Jago Blonde Kynnum Park Jai 10 7:26:00 13.0, 9.1 10.76 37, 47, 57 (Avg:52)
36 Gary Surch Gabri-El El Malek 11 7:33:00 10.8, 10.3 10.60 34, 47, 60 (Avg:53)
20 Gillian Taylor Cool Water Moonstone 12 7:37:00 11.1, 9.9 10.50 34, 44, 53 (Avg:48)
2 Ken Gordon Cameo Ontario 13 8:17:00 10.8, 8.6 9.66 37, 47, 52 (Avg:49)
38 Tracy Kirby Timbertop Little Miss Princess 14 8:22:00 10.5, 8.7 9.56 36, 43, 48 (Avg:45)
32 Craig Renner Edenfels M J W/D after vetting L1 0:00:00 - - 42, 49 (Avg:49)
Middleweight
76 Fiona Fenech Sweet Honesty Molleeh 1 4:07:00 19.5, 19.3 19.43 40, 54, 51 (Avg:52)
56 Stephen Gray Ballanbrae Art Nouveau 2 (BC) 4:19:35 19.3, 17.7 18.49 43, 42, 51 (Avg:46)
26 Christopher Schofield Briallyn Alimah 2 4:19:35 19.8, 17.3 18.49 32, 46, 45 (Avg:45)
41 Brook Sample Brookleigh Federer 4 4:36:00 19.0, 15.9 17.39 38, 50, 47 (Avg:48)
1 Ondy Laws-King Heathfield's Khalukey 5 4:56:00 18.4, 14.4 16.22 34, 46, 47 (Avg:46)
16 Damien Keys Elfar Tilly 6 5:19:00 14.8, 15.2 15.05 37, 41, 47 (Avg:44)
68 Lainie Zischke Glenewan Whisper 7 5:41:25 15.1, 13.0 14.06 30, 48, 56 (Avg:52)
40 Sue Vacher Sherlock 8 5:49:00 15.0, 12.6 13.75 38, 45, 44 (Avg:44)
97 Peter Holmes Spot 9 6:02:00 13.2, 13.2 13.26 34, 42, 45 (Avg:43)
21 Wade Burgess Cameo Kingfisher 10 6:04:00 13.1, 13.1 13.19 32, 41, 46 (Avg:43)
22 Lisa Burgess Agape Sterling's Jo-El 10 6:04:00 13.1, 13.1 13.19 30, 40, 43 (Avg:41)
53 Samantha Yates Ausden Prince Mahal 12 6:05:00 13.1, 13.1 13.15 31, 44, 54 (Avg:49)
28 David Cleland Emilina 13 6:15:00 11.9, 13.7 12.80 39, 41, 48 (Avg:44)
4 Gayle Holmes Aloha Kashshar 14 6:18:00 13.2, 12.2 12.70 52, 45, 46 (Avg:45)
29 Michael Combe Maxwell Smart 15 6:23:00 13.1, 11.9 12.53 36, 54, 53 (Avg:53)
30 Ian Mains Kohnray Emerald 15 6:23:00 13.1, 11.9 12.53 38, 44, 44 (Avg:44)
71 Virginia Barber Abbeywood Cochise 17 6:31:00 12.8, 11.7 12.28 36, 48, 53 (Avg:50)
18 Camila Champagne-Bargenquast Cameo Cranberry Moon 18 6:35:00 12.2, 12.0 12.15 36, 44, 54 (Avg:49)
65 Antoine Durand Brookleigh MIa 18 6:35:00 11.4, 12.9 12.15 42, 40, 51 (Avg:45)
52 Karen Lee Chika Canela 20 6:36:00 11.8, 12.4 12.12 39, 48, 53 (Avg:50)
75 Akhmed Pshunov Centre Fold te 21 6:37:00 12.2, 11.9 12.09 34, 49, 49 (Avg:49)
94 Jennifer Annetts Crystan 22 6:38:00 12.4, 11.7 12.06 34, 48, 50 (Avg:49)
91 Sarah Fraser-O'Brien Envious te 22 6:38:00 11.8, 12.2 12.06 34, 36, 42 (Avg:39)
72 Christal Rizk Shardell Jaxon 24 6:45:00 13.0, 10.8 11.85 48, 48, 54 (Avg:51)
47 Corey Nix Homeleigh Mountain Kosmo 25 6:48:00 12.3, 11.2 11.76 65, 41, 55 (Avg:48)
49 Liz Kirk Drumlin Moonstrike 26 6:52:00 11.7, 11.5 11.65 40, 48, 44 (Avg:46)
12 Hannah Houlden Elfar Krystella 27 7:10:00 11.2, 11.0 11.16 31, 40, 44 (Avg:42)
82 El MacDonald Die Kinder Embers 28 7:18:00 11.7, 10.2 10.96 40, 42, 41 (Avg:41)
54 Emily Markey Briallyn Kirra Bint Zanir 29 7:19:00 11.0, 10.8 10.93 36, 45, 50 (Avg:47)
17 Ema Basic Lil Mister Ultimate 30 7:37:00 11.2, 9.8 10.50 39, 50, 50 (Avg:50)
55 Lexi Morton Arny's Bad Moon Arisin 31 7:43:00 10.6, 10.0 10.37 37, 52, 60 (Avg:56)
10 Lynelle Greenwood Picnic Park Silver Knight 32 7:51:00 10.9, 9.5 10.19 36, 42, 55 (Avg:48)
44 Joy Craig Zameel Rafiq 33 8:21:00 10.5, 8.7 9.58 22, 45, 54 (Avg:49)
13 Dallas Blakely Ahnoosa 34 8:29:00 12.3, 7.6 9.43 38, 42, 54 (Avg:48)
96 Billie Barron Virgil Lame L2 0:00:00 20.1, 16.5 - 32, 44, 48 (Avg:46)
31 John Dugan Performance Park Illusion Lame L2 0:00:00 20.3, 11.9 - 34, 50, 44 (Avg:47)
25 Pamela Karner Castlebar Link Lame L2 0:00:00 14.1, 11.0 - 43, 53, 53 (Avg:53)
93 Danielle Kendall Julian te Lame L2 0:00:00 11.8, 12.1 - 38, 44, 59 (Avg:51)
83 David Urquhart Bremervale Mackenzie Lame L2 0:00:00 11.2, 11.1 - 42, 42, 53 (Avg:47)
11 Duncan Woodhead Jakarna Lame L2 0:00:00 13.1, 11.9 - 40, 45, 50 (Avg:47)
14 Angela Head Hirstglen Alhasan Heart Rate L1 0:00:00 9.4 - 58, 57 (Avg:57)
80 Kane Kelso Bonnie Doon Shamal W/D after vetting L1 0:00:00 - - 38, 43 (Avg:43)
62 Gina Matthews Monarchs Knight Lame L1 0:00:00 20.3 - 32, 53 (Avg:53)
3 Matthew Sample Stirling's Genevieve W/D after vetting L1 0:00:00 - - 33, 47 (Avg:47)
69 Tereza Vaclavikova Bangalow Park Coopers Lad W/D after vetting P/R 0:00:00 - - 40
Lightweight
63 Meleita Dart Gazal El Adien 1 (BC) 4:14:00 19.9, 17.9 18.90 34, 39, 41 (Avg:40)
58 Renae Chapman Magic Glenn Azulia 2 4:38:00 19.0, 15.7 17.27 37, 45, 45 (Avg:45)
64 Lieke Ros Magic Glenn Gazelle 2 4:38:00 19.0, 15.7 17.27 39, 55, 53 (Avg:54)
6 Shelley Chapman Cameo Felspar 4 5:04:00 17.3, 14.4 15.79 34, 48, 49 (Avg:48)
92 Alexandra Toft Roger That te 4 5:04:00 16.9, 14.8 15.79 35, 42, 52 (Avg:47)
46 Janelle Taylor Calico Jarkamarn 6 5:17:00 17.3, 13.4 15.14 33, 48, 51 (Avg:49)
59 Jessie Herman Brookleigh Montana 7 5:20:00 17.3, 13.1 15.00 38, 42, 50 (Avg:46)
27 Alexa Field Brookleigh Bailey 8 5:36:00 14.5, 14.0 14.29 34, 43, 54 (Avg:48)
15 Narelle Childs Bashan Tahpenes 9 5:41:00 15.8, 12.6 14.08 36, 47, 47 (Avg:47)
50 Ute Jordan Ayla Emira 10 6:17:00 12.9, 12.5 12.73 43, 45, 50 (Avg:47)
51 Belinda Redhead Charaway M 'Adore 10 6:17:00 12.9, 12.5 12.73 36, 44, 44 (Avg:44)
5 Nikki Scott Henley Farm Rasikh 12 6:18:00 13.2, 12.1 12.70 40, 54, 50 (Avg:52)
7 Leigh Rich Miva Avanti 13 6:19:00 12.8, 12.4 12.66 41, 46, 59 (Avg:52)
48 Amanda Powell Jezabelle Jesse James 14 6:33:00 12.4, 11.9 12.21 39, 43, 52 (Avg:47)
19 Sarah Bocquet Arthur 15 6:35:00 12.2, 12.0 12.15 34, 47, 54 (Avg:50)
8 Jess Langridge Sterling's Calito 16 6:37:00 12.0, 12.1 12.09 42, 40, 42 (Avg:41)
90 Maeve Paten Larntainey Silver Treasure 17 6:39:00 11.9, 12.1 12.03 44, 43, 49 (Avg:46)
88 Tamara Gibson Dunbar Magnolia 18 6:42:00 12.6, 11.3 11.94 35, 40, 43 (Avg:41)
89 Ashleigh Grassick Dunbar Caspian 18 6:42:00 12.6, 11.3 11.94 38, 43, 46 (Avg:44)
77 Amaya Thomas Indiana Seabreeze 20 6:43:00 10.9, 13.0 11.91 35, 46, 48 (Avg:47)
34 Naomi Lee Flemingo Ra 21 6:46:00 12.7, 11.0 11.82 45, 45, 53 (Avg:49)
85 Jill Colwell Katushka 22 6:52:00 11.7, 11.5 11.65 31, 44, 49 (Avg:46)
45 Sonya Ryan Kholonial Amigo 23 7:10:00 11.6, 10.6 11.16 40, 53, 52 (Avg:52)
43 Sue Sutcliffe Ra-Anji Firefly 24 7:19:00 11.0, 10.8 10.93 32, 43, 52 (Avg:47)
33 Gemma Sutcliffe Boonara Captain Maximus 24 7:19:00 11.0, 10.8 10.93 36, 37, 40 (Avg:38)
74 Essy Mountford Aloha Delos 26 7:21:00 11.7, 10.1 10.88 43, 50, 53 (Avg:51)
24 Sian Crawford Shazane 27 7:37:00 10.9, 10.1 10.50 44, 54, 56 (Avg:55)
73 Kaylea Maher Shardell Indian Pride 28 7:39:00 12.2, 9.1 10.46 38, 47, 47 (Avg:47)
84 Virginia Dale Jum Jum Spirit 29 7:48:00 11.3, 9.3 10.26 38, 54, 55 (Avg:54)
9 Carolyn Lamb Larabi Rummanni 30 7:51:00 10.9, 9.5 10.19 33, 42, 49 (Avg:45)
66 Cozzy Armond Faria Gheerulla Geoffry Lame L2 0:00:00 11.4, 12.9 - 36, 44, 45 (Avg:44)
39 Renee Trunley Misty Day Lame L2 0:00:00 15.0, 12.6 - 45, 45, 52 (Avg:48)
35 Clare Fleming Flemingo Lucky in Love Lame L1 0:00:00 12.7 - 48, 43 (Avg:43)
37 Candice Gurtner Briallyn Panache Heart Rate L1 0:00:00 17.5 - 38, 64 (Avg:64)
78 Sarah Huddleston Danic Park Antebellum W/D after vetting L1 0:00:00 - - 38, 40 (Avg:40)
79 Renee Kelso Bonnie Doon Ashquar Lame L1 0:00:00 19.3 - 34, 49 (Avg:49)
67 Xanthe Webb Bremervale The General Heart Rate L1 0:00:00 11.2 - 43, 65 (Avg:65)
Junior
201 Modena Schofield Sharabel Kalarney 1 4:19:20 19.8, 17.3 18.51 40, 47, 52 (Avg:49)
213 Matty Sample Magic Glenn Glamour Girl 2 (BC) 4:36:00 19.0, 15.9 17.39 33, 47, 40 (Avg:43)
212 Ben Hoey Brookleigh Gandalf 3 5:20:00 17.3, 13.1 15.00 40, 50, 52 (Avg:51)
206 Chloe Bolliger Ramalea Samantha 4 5:30:00 15.6, 13.5 14.55 40, 47, 43 (Avg:45)
211 Mognild Eerkens Sashenka LEA 5 6:05:00 13.1, 13.1 13.15 40, 45, 53 (Avg:49)
202 Sam Long De-Sharvarll El Dakar 5 6:05:00 13.1, 13.1 13.15 34, 44, 44 (Avg:44)
203 Charlize Renner Edenfels Crystal Kaz 7 6:14:00 12.8, 12.7 12.83 29, 44, 47 (Avg:45)
215 Eadie McWilliam Samantha te 8 6:39:00 11.9, 12.1 12.03 34, 43, 52 (Avg:47)
204 Scarlet McQueen Flemingo Timelord 9 6:46:00 12.7, 11.0 11.82 42, 50, 56 (Avg:53)
210 Talyn Nix Homeleigh Mountain Khalid's Komet 10 6:48:00 12.3, 11.2 11.76 38, 44, 55 (Avg:49)
209 Sanjay Nix Castlebar Consort 10 6:48:00 12.3, 11.2 11.76 38, 44, 53 (Avg:48)
207 Louis Ryan Kholonial Lightning Jack 12 7:10:00 11.6, 10.6 11.16 42, 48, 51 (Avg:49)
214 Elexis Webb La-Battist Coral 12 7:10:00 11.2, 11.1 11.16 46, 48, 48 (Avg:48)
208 Georgia Morton Halimas Fayeek 14 7:43:00 10.6, 10.0 10.37 38, 42, 51 (Avg:46)
205 Lachlan Harris Zara Farm Zena 15 8:22:00 10.5, 8.7 9.56 32, 38, 40 (Avg:39)